Time;durP1;ratioP1;P1;durP2;ratioP2;P2;SDS_P1;SDS_P2;PMS_P1;PMS_P2;Temp;Humidity;BMP_temperature;BMP_pressure;BME280_temperature;BME280_humidity;BME280_pressure;Samples;Min_cycle;Max_cycle;Signal;HPM_P1;HPM_P2
2021/03/17 00:01:18;;;;;;;19.20;5.75;;;22.50;78.30;;;;;;5075222;28;20028;-61
2021/03/17 00:03:46;;;;;;;14.95;5.97;;;22.50;70.70;;;;;;5074057;28;20115;-59
2021/03/17 00:06:14;;;;;;;13.45;5.53;;;22.60;78.50;;;;;;5074406;28;20052;-63
2021/03/17 00:08:41;;;;;;;13.93;5.90;;;22.60;80.20;;;;;;5074497;28;20552;-61
2021/03/17 00:11:09;;;;;;;16.25;6.03;;;22.60;78.40;;;;;;5074815;28;20029;-64
2021/03/17 00:13:36;;;;;;;13.00;4.25;;;22.60;79.60;;;;;;5074362;28;20032;-62
2021/03/17 00:16:04;;;;;;;15.05;4.45;;;22.70;78.40;;;;;;5074057;28;20028;-60
2021/03/17 00:18:31;;;;;;;12.77;5.45;;;22.60;67.10;;;;;;5073700;28;20039;-60
2021/03/17 00:20:58;;;;;;;18.25;4.25;;;22.70;79.70;;;;;;5074654;28;20070;-61
2021/03/17 00:23:28;;;;;;;14.60;5.05;;;22.70;74.70;;;;;;5074530;28;20051;-60
2021/03/17 00:25:56;;;;;;;13.88;5.13;;;22.70;71.30;;;;;;5073815;28;20032;-62
2021/03/17 00:28:23;;;;;;;15.57;4.60;;;22.80;73.60;;;;;;5074228;28;20036;-60
2021/03/17 00:30:50;;;;;;;14.05;4.13;;;22.70;73.10;;;;;;5074366;28;20017;-62
2021/03/17 00:33:21;;;;;;;15.93;6.15;;;22.80;78.30;;;;;;5074456;28;20025;-62
2021/03/17 00:35:49;;;;;;;16.88;5.13;;;22.90;80.20;;;;;;5071403;28;20305;-58
2021/03/17 00:38:16;;;;;;;13.20;4.18;;;22.90;77.70;;;;;;5067657;28;20029;-63
2021/03/17 00:40:43;;;;;;;13.65;4.03;;;23.00;75.20;;;;;;5054290;28;20028;-64
2021/03/17 00:43:11;;;;;;;13.18;3.30;;;23.00;79.30;;;;;;5054149;28;20061;-59
2021/03/17 00:45:38;;;;;;;13.52;4.28;;;23.10;78.40;;;;;;5073460;28;20078;-63
2021/03/17 00:48:06;;;;;;;12.65;4.18;;;23.10;76.80;;;;;;5072012;28;20420;-62
2021/03/17 00:50:33;;;;;;;11.73;3.85;;;23.10;77.90;;;;;;5073700;28;20024;-62
2021/03/17 00:53:01;;;;;;;23.02;3.90;;;23.20;77.40;;;;;;5073732;28;20029;-63
2021/03/17 00:55:28;;;;;;;11.95;2.85;;;23.20;77.40;;;;;;5073381;28;20994;-61
2021/03/17 00:57:55;;;;;;;10.13;3.47;;;23.20;76.90;;;;;;5073500;28;20491;-62
2021/03/17 01:00:23;;;;;;;16.17;3.78;;;23.20;75.80;;;;;;5061386;28;20598;-60
2021/03/17 01:02:51;;;;;;;8.98;3.63;;;23.30;77.60;;;;;;5053557;28;20033;-61
2021/03/17 01:05:19;;;;;;;15.02;2.80;;;23.30;77.30;;;;;;5053559;28;20045;-62
2021/03/17 01:07:46;;;;;;;23.38;3.85;;;23.30;76.00;;;;;;5072311;28;20044;-58
2021/03/17 01:10:21;;;;;;;11.05;2.92;;;23.30;77.20;;;;;;5073786;28;20016;-61
2021/03/17 01:12:48;;;;;;;12.27;2.88;;;23.30;77.70;;;;;;5073594;28;20060;-62
2021/03/17 01:15:19;;;;;;;9.82;3.33;;;23.30;76.40;;;;;;5073534;28;20028;-62
2021/03/17 01:17:47;;;;;;;10.27;2.65;;;23.30;76.30;;;;;;5056360;28;20159;-64
2021/03/17 01:20:16;;;;;;;11.23;3.00;;;23.30;76.20;;;;;;5072541;28;20426;-57
2021/03/17 01:22:43;;;;;;;6.60;2.08;;;23.20;76.50;;;;;;5073377;28;20024;-67
2021/03/17 01:25:14;;;;;;;9.90;2.78;;;23.30;76.50;;;;;;5073525;28;20028;-59
2021/03/17 01:27:41;;;;;;;6.65;2.47;;;23.30;76.50;;;;;;5074172;28;20123;-68
2021/03/17 01:30:10;;;;;;;5.75;2.22;;;23.30;76.50;;;;;;5073993;28;20111;-66
2021/03/17 01:32:37;;;;;;;7.47;2.63;;;23.30;76.40;;;;;;5073629;28;20159;-61
2021/03/17 01:35:13;;;;;;;14.27;3.63;;;23.30;76.50;;;;;;5074042;28;20040;-68
2021/03/17 01:37:41;;;;;;;9.85;2.70;;;23.30;76.80;;;;;;5071436;28;20103;-58
2021/03/17 01:40:11;;;;;;;7.95;2.22;;;23.20;76.90;;;;;;5053454;28;20024;-66
2021/03/17 01:42:38;;;;;;;14.75;3.70;;;23.20;77.10;;;;;;5053943;28;20029;-60
2021/03/17 01:45:12;;;;;;;16.80;3.22;;;23.20;76.90;;;;;;5053411;28;20028;-59
2021/03/17 01:47:40;;;;;;;9.38;3.00;;;23.30;77.00;;;;;;5053175;28;20044;-61
2021/03/17 01:50:18;;;;;;;11.95;3.30;;;23.30;76.60;;;;;;5054271;28;20017;-58
2021/03/17 01:52:45;;;;;;;11.80;3.05;;;23.30;76.70;;;;;;5053401;28;20025;-66
2021/03/17 01:55:13;;;;;;;11.50;2.80;;;23.30;76.50;;;;;;5053503;28;20029;-65
2021/03/17 01:57:41;;;;;;;8.38;3.03;;;23.30;76.10;;;;;;5053072;28;20033;-68
2021/03/17 02:00:15;;;;;;;10.63;2.38;;;23.30;76.10;;;;;;5053428;28;20028;-65
2021/03/17 02:03:03;;;;;;;6.18;2.08;;;23.40;75.90;;;;;;5051995;28;20083;-62
2021/03/17 02:05:37;;;;;;;11.48;2.80;;;23.30;76.30;;;;;;5053382;28;20094;-67
2021/03/17 02:08:07;;;;;;;7.28;3.00;;;23.30;76.00;;;;;;5053363;28;20502;-61
2021/03/17 02:10:35;;;;;;;6.70;2.20;;;23.30;76.00;;;;;;5052167;28;20033;-64
2021/03/17 02:13:28;;;;;;;10.82;2.58;;;23.30;76.10;;;;;;5057913;28;20454;-63
2021/03/17 02:16:21;;;;;;;6.40;1.98;;;23.30;75.60;;;;;;5058095;28;20042;-67
2021/03/17 02:18:47;;;;;;;;;;;23.40;75.90;;;;;;5072519;28;20339;-63
2021/03/17 02:21:42;;;;;;;22.15;3.92;;;23.40;75.70;;;;;;5054291;28;19908;-67
2021/03/17 02:24:38;;;;;;;8.55;2.17;;;23.40;75.10;;;;;;5071819;28;20095;-58
2021/03/17 02:27:36;;;;;;;6.47;2.05;;;23.50;75.20;;;;;;5051825;28;20033;-61
2021/03/17 02:30:28;;;;;;;11.02;2.75;;;23.50;75.40;;;;;;5072164;28;20044;-64
2021/03/17 02:33:36;;;;;;;6.57;1.63;;;23.50;75.20;;;;;;5071246;28;20020;-61
2021/03/17 02:36:19;;;;;;;8.90;2.45;;;23.50;75.20;;;;;;5020736;28;20066;-62
2021/03/17 02:38:52;;;;;;;12.02;2.83;;;23.50;75.30;;;;;;5071345;28;20070;-65
2021/03/17 02:41:26;;;;;;;7.68;2.33;;;23.50;75.30;;;;;;5071708;28;20100;-59
2021/03/17 02:44:00;;;;;;;7.60;2.58;;;23.50;75.50;;;;;;5071771;28;20367;-60
2021/03/17 02:46:29;;;;;;;8.07;2.28;;;23.40;75.50;;;;;;5071321;28;20469;-64
2021/03/17 02:49:04;;;;;;;10.40;1.92;;;23.40;75.10;;;;;;5071249;28;20036;-58
2021/03/17 02:51:33;;;;;;;10.30;2.20;;;23.40;75.70;;;;;;5071735;28;20024;-61
2021/03/17 02:54:03;;;;;;;7.75;1.90;;;23.40;75.70;;;;;;5071574;28;20031;-59
2021/03/17 02:56:34;;;;;;;6.07;2.10;;;23.40;75.20;;;;;;5071490;28;20501;-63
2021/03/17 02:59:02;;;;;;;4.53;2.20;;;23.40;75.50;;;;;;5071177;28;20017;-57
2021/03/17 03:01:31;;;;;;;9.25;3.00;;;23.50;75.20;;;;;;5071518;28;20494;-61
2021/03/17 03:04:02;;;;;;;9.82;2.10;;;23.50;75.20;;;;;;5071468;28;20048;-60
2021/03/17 03:06:33;;;;;;;9.63;2.50;;;23.50;75.50;;;;;;5070659;28;20045;-57
2021/03/17 03:09:01;;;;;;;7.88;1.83;;;23.50;75.30;;;;;;5070782;28;20032;-65
2021/03/17 03:11:29;;;;;;;6.25;2.40;;;23.50;75.10;;;;;;5070877;28;20755;-60
2021/03/17 03:13:57;;;;;;;8.73;1.90;;;23.40;75.50;;;;;;5070598;28;20053;-54
2021/03/17 03:16:25;;;;;;;8.27;2.53;;;23.40;75.90;;;;;;5071635;28;20021;-63
2021/03/17 03:18:55;;;;;;;7.40;1.77;;;23.50;75.70;;;;;;5070742;28;20029;-63
2021/03/17 03:21:26;;;;;;;7.45;1.95;;;23.50;75.80;;;;;;5070934;28;20021;-63
2021/03/17 03:23:55;;;;;;;7.30;2.00;;;23.50;75.70;;;;;;5071209;28;20051;-61
2021/03/17 03:26:23;;;;;;;7.35;2.00;;;23.50;75.60;;;;;;5069704;28;20021;-67
2021/03/17 03:28:53;;;;;;;9.05;3.08;;;23.50;75.40;;;;;;5070967;28;20033;-63
2021/03/17 03:31:20;;;;;;;9.73;2.15;;;23.50;75.10;;;;;;5070564;28;20028;-63
2021/03/17 03:33:48;;;;;;;8.70;2.22;;;23.50;75.20;;;;;;5053078;28;20024;-58
2021/03/17 03:36:16;;;;;;;8.70;1.83;;;23.50;75.30;;;;;;5071239;28;20062;-64
2021/03/17 03:38:43;;;;;;;7.22;2.10;;;23.50;75.10;;;;;;5070639;28;20305;-59
2021/03/17 03:41:10;;;;;;;8.30;2.13;;;23.50;75.00;;;;;;5070961;28;20463;-62
2021/03/17 03:43:38;;;;;;;6.38;1.95;;;23.50;75.20;;;;;;5070824;28;20033;-61
2021/03/17 03:46:05;;;;;;;10.73;1.60;;;23.50;75.20;;;;;;5070644;28;20059;-63
2021/03/17 03:48:36;;;;;;;5.45;1.65;;;23.50;75.00;;;;;;5070450;28;20037;-61
2021/03/17 03:51:05;;;;;;;7.53;1.95;;;23.50;75.10;;;;;;5070705;28;20109;-57
2021/03/17 03:54:03;;;;;;;5.28;2.05;;;23.60;75.10;;;;;;5052873;28;20066;-59
2021/03/17 03:56:39;;;;;;;5.05;1.80;;;23.50;74.80;;;;;;5032049;28;20029;-55
2021/03/17 03:59:12;;;;;;;6.40;1.85;;;23.50;75.20;;;;;;5070345;28;20027;-59
2021/03/17 04:01:49;;;;;;;7.85;2.13;;;23.50;75.30;;;;;;5070699;28;20056;-60
2021/03/17 04:04:18;;;;;;;5.22;1.48;;;23.40;75.40;;;;;;5071012;28;20484;-53
2021/03/17 04:06:56;;;;;;;5.38;1.77;;;23.40;75.10;;;;;;5070450;28;20057;-60
2021/03/17 04:09:36;;;;;;;6.38;2.13;;;23.40;75.30;;;;;;5070552;28;20047;-61
2021/03/17 04:12:05;;;;;;;6.78;1.92;;;23.40;75.40;;;;;;5070690;28;20013;-63
2021/03/17 04:14:36;;;;;;;6.88;1.80;;;23.40;75.50;;;;;;5059792;28;20020;-62
2021/03/17 04:17:23;;;;;;;8.00;1.55;;;23.40;75.40;;;;;;5065637;28;20540;-64
2021/03/17 04:19:56;;;;;;;5.88;2.13;;;23.40;75.50;;;;;;5064417;28;20021;-59
2021/03/17 04:22:25;;;;;;;4.07;1.63;;;23.40;75.30;;;;;;5069835;28;20020;-53
2021/03/17 04:24:54;;;;;;;5.75;1.65;;;23.40;75.90;;;;;;5067294;28;20017;-53
2021/03/17 04:27:23;;;;;;;6.43;2.08;;;23.40;75.70;;;;;;5068311;28;20040;-65
2021/03/17 04:29:53;;;;;;;7.38;1.85;;;23.30;75.70;;;;;;5052763;28;20048;-63
2021/03/17 04:32:23;;;;;;;8.20;2.25;;;23.30;75.90;;;;;;5071309;28;20186;-56
2021/03/17 04:34:52;;;;;;;6.60;2.00;;;23.40;76.00;;;;;;5071332;28;20086;-64
2021/03/17 04:37:21;;;;;;;6.97;1.73;;;23.40;75.60;;;;;;5068082;28;20020;-63
2021/03/17 04:39:51;;;;;;;7.07;1.90;;;23.50;75.80;;;;;;5071367;28;20032;-63
2021/03/17 04:42:20;;;;;;;8.45;2.40;;;23.40;75.80;;;;;;5071075;28;20098;-64
2021/03/17 04:44:48;;;;;;;11.48;1.98;;;23.50;76.00;;;;;;5070988;28;20042;-55
2021/03/17 04:47:16;;;;;;;11.38;2.10;;;23.50;76.40;;;;;;5065493;28;20124;-65
2021/03/17 04:49:46;;;;;;;8.38;1.80;;;23.50;75.60;;;;;;5070625;28;20025;-64
2021/03/17 04:52:18;;;;;;;8.30;2.17;;;23.50;75.80;;;;;;5071211;28;20028;-62
2021/03/17 04:54:46;;;;;;;5.50;1.85;;;23.50;76.00;;;;;;5070359;28;20060;-60
2021/03/17 04:57:19;;;;;;;18.30;2.17;;;23.50;75.80;;;;;;5067615;28;20025;-63
2021/03/17 04:59:49;;;;;;;8.40;1.90;;;23.50;77.00;;;;;;5071431;28;20025;-65
2021/03/17 05:02:22;;;;;;;14.95;2.50;;;23.60;76.70;;;;;;5071388;28;20095;-66
2021/03/17 05:04:52;;;;;;;7.72;2.65;;;23.60;77.40;;;;;;5071620;28;20934;-60
2021/03/17 05:07:22;;;;;;;8.10;1.45;;;23.60;76.70;;;;;;5067931;28;20028;-55
2021/03/17 05:09:52;;;;;;;9.57;2.08;;;23.60;76.90;;;;;;5067583;28;20021;-66
2021/03/17 05:12:20;;;;;;;7.13;1.63;;;23.60;76.60;;;;;;5067373;28;20078;-60
2021/03/17 05:14:50;;;;;;;7.47;1.45;;;23.60;76.80;;;;;;5068623;28;20025;-64
2021/03/17 05:17:21;;;;;;;7.57;1.95;;;23.60;76.40;;;;;;5067452;28;20031;-65
2021/03/17 05:19:49;;;;;;;7.05;1.75;;;23.60;76.90;;;;;;5067264;28;20032;-66
2021/03/17 05:22:17;;;;;;;11.15;1.60;;;23.60;77.50;;;;;;5070235;28;20035;-66
2021/03/17 05:24:45;;;;;;;12.15;2.08;;;23.60;77.70;;;;;;5071195;28;20429;-58
2021/03/17 05:27:20;;;;;;;9.13;2.15;;;23.60;78.20;;;;;;5072088;28;20127;-60
2021/03/17 05:29:49;;;;;;;7.60;2.03;;;23.60;78.40;;;;;;5073207;28;20025;-59
2021/03/17 05:32:17;;;;;;;11.02;2.60;;;23.60;77.80;;;;;;5072189;28;20033;-59
2021/03/17 05:35:11;;;;;;;10.07;2.00;;;23.50;77.90;;;;;;5064630;28;20040;-58
2021/03/17 05:37:39;;;;;;;12.23;2.40;;;23.40;79.50;;;;;;5064595;28;20059;-58
2021/03/17 05:40:09;;;;;;;9.43;2.15;;;23.40;79.20;;;;;;5066031;28;20040;-55
2021/03/17 05:42:39;;;;;;;9.30;2.13;;;23.20;79.90;;;;;;5047603;28;20106;-56
2021/03/17 05:45:15;;;;;;;8.45;2.35;;;23.20;80.20;;;;;;5067876;28;20418;-54
2021/03/17 05:47:47;;;;;;;10.27;2.17;;;23.10;80.80;;;;;;5068276;28;20431;-55
2021/03/17 05:50:17;;;;;;;7.55;2.10;;;23.20;80.40;;;;;;5068041;28;20051;-62
2021/03/17 05:52:45;;;;;;;14.23;2.58;;;23.20;80.50;;;;;;5072521;28;20032;-58
2021/03/17 05:55:13;;;;;;;19.92;2.65;;;23.30;79.70;;;;;;5072514;28;20100;-61
2021/03/17 05:57:42;;;;;;;17.13;1.85;;;23.40;79.80;;;;;;5072128;28;20024;-59
2021/03/17 06:00:19;;;;;;;5.65;1.88;;;23.40;79.40;;;;;;5072314;28;20021;-58
2021/03/17 06:02:48;;;;;;;12.23;2.25;;;23.50;78.50;;;;;;5071745;28;20535;-63
2021/03/17 06:05:18;;;;;;;11.38;2.25;;;23.50;78.40;;;;;;5072159;28;20056;-61
2021/03/17 06:08:06;;;;;;;18.02;2.88;;;23.50;78.20;;;;;;5071902;28;20384;-62
2021/03/17 06:10:35;;;;;;;11.15;2.05;;;23.60;78.30;;;;;;5071805;28;20024;-53
2021/03/17 06:13:11;;;;;;;9.27;1.80;;;23.60;78.70;;;;;;5072256;28;20425;-64
2021/03/17 06:15:42;;;;;;;9.93;2.20;;;23.60;79.10;;;;;;5071293;28;20440;-63
2021/03/17 06:18:38;;;;;;;12.13;3.15;;;23.60;79.70;;;;;;5071757;28;20017;-58
2021/03/17 06:21:07;;;;;;;9.73;2.40;;;23.60;80.40;;;;;;5054738;28;20029;-61
2021/03/17 06:23:34;;;;;;;21.52;2.78;;;23.60;80.50;;;;;;5071489;28;20029;-56
2021/03/17 06:26:02;;;;;;;8.75;2.97;;;23.60;80.90;;;;;;5071270;28;20043;-58
2021/03/17 06:28:29;;;;;;;10.80;2.92;;;23.50;80.90;;;;;;5070665;28;20051;-52
2021/03/17 06:30:58;;;;;;;13.65;4.15;;;23.50;81.10;;;;;;5071433;28;20429;-55
2021/03/17 06:33:26;;;;;;;11.48;3.30;;;23.50;81.90;;;;;;5071523;28;20050;-56
2021/03/17 06:36:17;;;;;;;13.75;2.97;;;23.50;81.80;;;;;;5071415;28;20078;-54
2021/03/17 06:38:46;;;;;;;12.70;2.92;;;23.60;82.30;;;;;;5071248;28;20510;-56
2021/03/17 06:41:15;;;;;;;11.30;2.80;;;23.60;82.30;;;;;;5071021;28;20100;-58
2021/03/17 06:43:45;;;;;;;16.38;3.58;;;23.60;82.20;;;;;;5071250;28;20078;-61
2021/03/17 06:46:18;;;;;;;22.02;3.63;;;23.50;82.90;;;;;;5072396;28;20030;-59
2021/03/17 06:48:46;;;;;;;11.40;2.58;;;23.50;82.90;;;;;;5071407;28;20394;-63
2021/03/17 06:51:19;;;;;;;15.13;3.72;;;23.50;83.20;;;;;;5071411;28;20056;-60
2021/03/17 06:53:50;;;;;;;10.38;2.90;;;23.50;83.00;;;;;;5071502;28;20027;-63
2021/03/17 06:56:37;;;;;;;14.27;3.60;;;23.40;83.80;;;;;;5071041;28;20028;-58
2021/03/17 06:59:07;;;;;;;23.95;3.92;;;23.40;83.90;;;;;;5071980;28;20032;-61
2021/03/17 07:01:40;;;;;;;12.43;3.20;;;23.40;84.40;;;;;;5070110;28;20028;-58
2021/03/17 07:04:12;;;;;;;19.73;3.40;;;23.40;84.40;;;;;;5071157;28;20028;-56
2021/03/17 07:06:41;;;;;;;37.10;4.25;;;23.40;84.80;;;;;;5071344;28;20083;-63
2021/03/17 07:09:20;;;;;;;15.07;2.80;;;23.40;85.70;;;;;;5070967;28;20033;-62
2021/03/17 07:11:50;;;;;;;14.25;3.28;;;23.30;84.90;;;;;;5071481;28;20043;-69
2021/03/17 07:14:27;;;;;;;20.35;4.10;;;23.30;84.60;;;;;;5071558;28;20032;-63
2021/03/17 07:16:57;;;;;;;11.02;2.97;;;23.30;84.50;;;;;;5062204;28;20093;-61
2021/03/17 07:19:51;;;;;;;17.55;3.63;;;23.20;85.00;;;;;;5068561;28;20054;-61
2021/03/17 07:22:19;;;;;;;10.93;2.88;;;23.20;84.20;;;;;;5060258;28;20062;-61
2021/03/17 07:24:52;;;;;;;9.70;2.65;;;23.10;83.70;;;;;;5066041;28;20171;-63
2021/03/17 07:27:22;;;;;;;10.10;2.92;;;23.10;83.50;;;;;;5066367;28;20040;-61
2021/03/17 07:29:59;;;;;;;11.90;2.85;;;23.10;83.50;;;;;;5067054;28;20112;-55
2021/03/17 07:32:27;;;;;;;17.50;3.47;;;23.10;83.40;;;;;;5065344;28;20063;-63
2021/03/17 07:34:55;;;;;;;17.00;3.70;;;23.10;83.90;;;;;;5069208;28;20028;-64
2021/03/17 07:37:26;;;;;;;18.00;4.30;;;23.10;83.30;;;;;;5070186;28;20074;-61
2021/03/17 07:39:57;;;;;;;11.38;3.50;;;23.10;83.00;;;;;;5071375;28;20087;-64
2021/03/17 07:42:25;;;;;;;12.80;2.92;;;23.00;83.30;;;;;;5070884;28;20107;-61
2021/03/17 07:44:54;;;;;;;23.88;8.82;;;23.10;82.80;;;;;;5059676;28;20031;-56
2021/03/17 07:47:21;;;;;;;10.43;3.85;;;23.00;83.50;;;;;;5068450;28;20108;-53
2021/03/17 07:49:49;;;;;;;18.02;5.03;;;23.00;83.60;;;;;;5067922;28;20036;-56
2021/03/17 07:52:29;;;;;;;13.95;6.57;;;22.90;84.30;;;;;;5068130;28;20096;-59
2021/03/17 07:55:06;;;;;;;15.88;6.18;;;23.00;84.40;;;;;;5066454;28;20025;-55
2021/03/17 07:57:33;;;;;;;12.73;4.80;;;23.00;84.50;;;;;;5071416;28;20044;-59
2021/03/17 08:00:01;;;;;;;16.60;7.10;;;23.00;84.20;;;;;;5072280;28;20029;-55
2021/03/17 08:02:31;;;;;;;11.27;4.03;;;23.00;84.70;;;;;;5072277;28;20099;-55
2021/03/17 08:05:00;;;;;;;12.75;5.05;;;23.00;84.50;;;;;;5068969;28;20048;-59
2021/03/17 08:07:27;;;;;;;12.13;3.95;;;22.90;84.80;;;;;;5071611;28;20579;-57
2021/03/17 08:09:55;;;;;;;12.80;5.38;;;22.90;85.30;;;;;;5072129;28;20025;-59
2021/03/17 08:12:23;;;;;;;16.52;5.95;;;22.90;86.00;;;;;;5072168;28;20451;-51
2021/03/17 08:14:50;;;;;;;10.40;2.63;;;22.90;86.30;;;;;;5069924;28;20076;-51
2021/03/17 08:17:31;;;;;;;16.63;4.47;;;22.90;86.70;;;;;;5069588;28;20032;-53
2021/03/17 08:20:20;;;;;;;16.75;5.18;;;22.90;85.70;;;;;;5069251;28;20025;-59
2021/03/17 08:22:49;;;;;;;15.00;5.28;;;22.90;86.50;;;;;;5071460;28;20052;-59
2021/03/17 08:25:37;;;;;;;20.05;6.60;;;22.90;86.80;;;;;;5068483;28;20040;-63
2021/03/17 08:28:20;;;;;;;14.80;4.68;;;23.00;87.40;;;;;;5069196;28;20049;-56
2021/03/17 08:30:49;;;;;;;31.00;6.38;;;23.00;88.10;;;;;;5071245;28;20493;-53
2021/03/17 08:33:36;;;;;;;21.38;4.10;;;22.90;88.90;;;;;;5071457;28;20502;-57
2021/03/17 08:36:12;;;;;;;25.45;9.35;;;23.00;90.10;;;;;;5071445;28;20025;-53
2021/03/17 08:38:51;;;;;;;14.63;4.63;;;23.00;87.10;;;;;;5065622;28;20035;-61
2021/03/17 08:41:43;;;;;;;17.92;3.58;;;22.90;86.60;;;;;;5055238;28;20021;-58
2021/03/17 08:44:17;;;;;;;20.02;3.33;;;22.90;85.80;;;;;;5054497;28;20109;-63
2021/03/17 08:46:45;;;;;;;25.05;3.17;;;22.90;85.20;;;;;;5056184;28;20131;-57
2021/03/17 08:49:14;;;;;;;16.77;3.10;;;22.90;85.90;;;;;;5073499;28;20040;-58
2021/03/17 08:51:48;;;;;;;21.25;3.38;;;22.80;86.90;;;;;;5073558;28;20017;-58
2021/03/17 08:54:33;;;;;;;25.17;3.47;;;22.80;86.80;;;;;;5072679;28;20429;-62
2021/03/17 08:57:08;;;;;;;11.18;3.40;;;22.80;88.40;;;;;;5072353;28;20024;-57
2021/03/17 08:59:46;;;;;;;15.73;3.28;;;22.80;89.20;;;;;;5072274;28;20096;-64
2021/03/17 09:02:25;;;;;;;14.75;3.72;;;22.90;89.10;;;;;;5071654;28;20051;-57
2021/03/17 09:04:52;;;;;;;15.90;4.90;;;22.90;89.60;;;;;;5073550;28;20372;-63
2021/03/17 09:07:22;;;;;;;18.25;6.43;;;22.90;89.80;;;;;;5091240;28;20132;-60
2021/03/17 09:10:14;;;;;;;18.77;6.38;;;22.90;89.60;;;;;;5093182;28;20028;-52
2021/03/17 09:12:44;;;;;;;18.83;5.90;;;22.90;89.80;;;;;;5093869;28;20044;-60
2021/03/17 09:15:14;;;;;;;21.77;6.50;;;22.90;90.00;;;;;;5093938;28;20477;-53
2021/03/17 09:17:55;;;;;;;15.30;5.28;;;22.90;90.00;;;;;;5094097;28;20347;-57
2021/03/17 09:20:35;;;;;;;18.70;5.50;;;22.80;90.40;;;;;;5094587;28;20081;-62
2021/03/17 09:23:18;;;;;;;19.17;5.72;;;22.80;90.70;;;;;;5093884;28;20020;-64
2021/03/17 09:25:48;;;;;;;19.50;8.23;;;22.80;90.60;;;;;;5093881;28;20032;-62
2021/03/17 09:28:27;;;;;;;19.63;6.63;;;22.90;91.40;;;;;;5075563;28;20039;-61
2021/03/17 09:31:02;;;;;;;23.77;7.95;;;22.80;91.10;;;;;;5094008;28;20516;-65
2021/03/17 09:33:31;;;;;;;27.58;8.82;;;22.80;91.20;;;;;;5067413;28;20391;-58
2021/03/17 09:36:05;;;;;;;19.40;9.45;;;22.90;92.40;;;;;;5070467;28;20112;-59
2021/03/17 09:38:37;;;;;;;29.48;10.85;;;22.80;92.00;;;;;;5074037;28;20371;-62
2021/03/17 09:41:14;;;;;;;25.52;10.30;;;22.80;91.30;;;;;;5068647;28;20032;-60
2021/03/17 09:43:56;;;;;;;23.50;13.95;;;22.70;91.20;;;;;;5050026;28;20390;-61
2021/03/17 09:46:24;;;;;;;;;;;22.70;90.50;;;;;;5067532;28;20036;-57
2021/03/17 09:48:54;;;;;;;21.10;11.10;;;22.70;90.50;;;;;;5070743;28;19913;-61
2021/03/17 09:51:32;;;;;;;26.40;8.50;;;22.60;90.50;;;;;;5070739;28;20119;-57
2021/03/17 09:54:04;;;;;;;20.23;8.68;;;22.60;90.20;;;;;;5047558;28;20041;-57
2021/03/17 09:56:38;;;;;;;14.13;6.32;;;22.50;90.10;;;;;;5066406;28;20024;-53
2021/03/17 09:59:29;;;;;;;11.90;6.50;;;22.50;90.00;;;;;;5069766;28;20387;-62
2021/03/17 10:02:00;;;;;;;13.65;6.10;;;22.50;89.70;;;;;;5070132;28;20028;-60
2021/03/17 10:04:29;;;;;;;13.77;5.18;;;22.50;89.70;;;;;;5066535;28;20111;-60
2021/03/17 10:06:57;;;;;;;18.30;6.00;;;22.50;89.40;;;;;;5069905;28;20080;-57
2021/03/17 10:09:34;;;;;;;13.80;5.35;;;22.50;89.50;;;;;;5070139;28;20131;-62
2021/03/17 10:12:12;;;;;;;18.42;6.47;;;22.50;89.30;;;;;;5068929;28;20150;-55
2021/03/17 10:15:10;;;;;;;19.63;8.07;;;22.50;89.30;;;;;;5067166;28;20483;-58
2021/03/17 10:17:38;;;;;;;24.00;8.98;;;22.50;88.90;;;;;;5067869;28;20156;-59
2021/03/17 10:20:09;;;;;;;18.50;7.88;;;22.50;89.00;;;;;;5069595;28;20025;-58
2021/03/17 10:22:37;;;;;;;17.13;7.57;;;22.50;88.60;;;;;;5064131;28;20658;-57
2021/03/17 10:25:15;;;;;;;23.05;7.50;;;22.50;88.50;;;;;;5065984;28;20079;-56
2021/03/17 10:27:52;;;;;;;23.70;8.32;;;22.50;88.40;;;;;;5066957;28;20077;-62
2021/03/17 10:30:31;;;;;;;23.08;7.93;;;22.50;88.30;;;;;;5069707;28;20188;-56
2021/03/17 10:33:02;;;;;;;25.48;8.38;;;22.50;88.20;;;;;;5065623;28;20028;-52
2021/03/17 10:35:31;;;;;;;26.20;8.68;;;22.50;88.20;;;;;;5069922;28;20040;-58
2021/03/17 10:38:02;;;;;;;24.65;8.73;;;22.50;88.10;;;;;;5069571;28;20021;-56
2021/03/17 10:40:31;;;;;;;24.97;8.47;;;22.50;88.00;;;;;;5064745;28;20032;-64
2021/03/17 10:42:59;;;;;;;25.35;8.43;;;22.50;87.90;;;;;;5066324;28;20025;-66
2021/03/17 10:45:41;;;;;;;21.75;8.07;;;22.50;87.80;;;;;;5069326;28;20066;-58
2021/03/17 10:48:15;;;;;;;29.23;9.38;;;22.50;87.60;;;;;;5065879;28;20040;-56
2021/03/17 10:50:44;;;;;;;22.08;8.48;;;22.50;87.50;;;;;;5068388;28;20471;-59
2021/03/17 10:53:19;;;;;;;19.52;7.57;;;22.50;87.40;;;;;;5061726;28;20032;-61
2021/03/17 10:55:48;;;;;;;18.85;7.35;;;22.50;87.30;;;;;;5066096;28;20028;-58
2021/03/17 10:58:18;;;;;;;21.27;7.38;;;22.50;87.30;;;;;;5068150;28;20475;-60
2021/03/17 11:00:47;;;;;;;20.88;6.93;;;22.50;87.10;;;;;;5065942;28;20479;-54
2021/03/17 11:03:41;;;;;;;18.73;6.15;;;22.40;87.10;;;;;;5062584;28;20032;-66
2021/03/17 11:06:24;;;;;;;17.77;7.22;;;22.40;87.00;;;;;;5066165;28;20155;-60
2021/03/17 11:09:06;;;;;;;16.65;6.80;;;22.40;87.00;;;;;;5066870;28;20546;-60
2021/03/17 11:11:48;;;;;;;15.10;6.75;;;22.40;86.90;;;;;;5067800;28;20024;-56
2021/03/17 11:14:34;;;;;;;18.67;6.50;;;22.40;86.80;;;;;;5065561;28;20033;-62
2021/03/17 11:17:11;;;;;;;18.67;6.78;;;22.40;86.60;;;;;;5067286;28;20017;-56
2021/03/17 11:19:38;;;;;;;20.92;7.22;;;22.40;86.50;;;;;;5068844;28;20033;-50
2021/03/17 11:22:06;;;;;;;16.85;6.72;;;22.40;86.50;;;;;;5069296;28;20776;-64
2021/03/17 11:24:33;;;;;;;16.00;5.60;;;22.40;86.40;;;;;;5066222;28;20041;-63
2021/03/17 11:27:01;;;;;;;12.93;5.47;;;22.40;86.30;;;;;;5068927;28;20016;-61
2021/03/17 11:29:30;;;;;;;18.63;5.88;;;22.40;86.20;;;;;;5068954;28;20029;-67
2021/03/17 11:32:10;;;;;;;19.90;6.35;;;22.40;86.10;;;;;;5068853;28;20107;-60
2021/03/17 11:34:37;;;;;;;14.80;6.45;;;22.40;86.00;;;;;;5066055;28;20032;-56
2021/03/17 11:37:05;;;;;;;16.50;6.00;;;22.40;85.90;;;;;;5049028;28;20028;-55
2021/03/17 11:39:32;;;;;;;13.52;5.72;;;22.40;85.80;;;;;;5069290;28;20355;-60
2021/03/17 11:42:00;;;;;;;12.80;4.22;;;22.40;85.80;;;;;;5069410;28;20132;-56
2021/03/17 11:44:27;;;;;;;15.43;5.82;;;22.30;85.60;;;;;;5065183;28;20047;-55
2021/03/17 11:46:55;;;;;;;11.02;4.43;;;22.30;85.60;;;;;;5068848;28;20112;-54
2021/03/17 11:49:22;;;;;;;14.93;5.10;;;22.30;85.60;;;;;;5068977;28;20386;-54
2021/03/17 11:51:50;;;;;;;13.13;5.28;;;22.30;85.50;;;;;;5068017;28;20051;-61
2021/03/17 11:54:17;;;;;;;13.38;4.43;;;22.30;85.50;;;;;;5065980;28;20028;-58
2021/03/17 11:56:45;;;;;;;12.90;4.68;;;22.30;85.60;;;;;;5069167;28;20528;-53
2021/03/17 11:59:13;;;;;;;14.60;4.93;;;22.30;85.50;;;;;;5069173;28;20021;-59
2021/03/17 12:01:40;;;;;;;16.83;4.75;;;22.30;85.40;;;;;;5068260;28;20029;-60
2021/03/17 12:04:08;;;;;;;16.75;5.15;;;22.30;85.30;;;;;;5065428;28;20058;-55
2021/03/17 12:06:35;;;;;;;12.65;4.80;;;22.30;85.30;;;;;;5068387;28;20450;-61
2021/03/17 12:09:04;;;;;;;11.20;4.15;;;22.20;85.30;;;;;;5066841;28;20048;-55
2021/03/17 12:11:33;;;;;;;13.32;4.55;;;22.20;85.30;;;;;;5069328;28;20029;-55
2021/03/17 12:14:00;;;;;;;10.48;3.88;;;22.30;85.20;;;;;;5047648;28;20497;-57
2021/03/17 12:16:28;;;;;;;12.55;4.22;;;22.30;85.20;;;;;;5068210;28;20532;-56
2021/03/17 12:18:55;;;;;;;11.07;3.40;;;22.30;85.10;;;;;;5067634;28;21738;-55
2021/03/17 12:21:23;;;;;;;13.30;4.25;;;22.30;85.10;;;;;;5068822;28;20471;-56
2021/03/17 12:23:51;;;;;;;13.48;3.75;;;22.30;85.00;;;;;;5065569;28;20071;-55
2021/03/17 12:26:20;;;;;;;8.80;3.50;;;22.30;84.90;;;;;;5068152;28;20147;-54
2021/03/17 12:28:48;;;;;;;9.73;3.90;;;22.30;84.90;;;;;;5068675;28;20059;-51
2021/03/17 12:31:16;;;;;;;8.68;3.97;;;22.30;84.90;;;;;;5068887;28;20032;-54
2021/03/17 12:33:44;;;;;;;11.27;3.70;;;22.30;84.80;;;;;;5064620;28;20499;-54
2021/03/17 12:36:14;;;;;;;7.88;2.92;;;22.30;84.70;;;;;;5068802;28;20075;-56
2021/03/17 12:38:41;;;;;;;10.00;3.85;;;22.30;84.70;;;;;;5065387;28;20028;-59
2021/03/17 12:41:09;;;;;;;10.48;3.03;;;22.30;84.70;;;;;;5048328;28;20383;-52
2021/03/17 12:43:38;;;;;;;10.60;3.95;;;22.30;84.70;;;;;;5066946;28;20029;-58
2021/03/17 12:46:05;;;;;;;9.07;3.25;;;22.30;84.70;;;;;;5072388;28;20031;-51
2021/03/17 12:48:33;;;;;;;10.63;3.45;;;22.30;84.60;;;;;;5071952;28;20491;-61
2021/03/17 12:51:01;;;;;;;14.15;4.05;;;22.30;84.70;;;;;;5071511;28;20112;-57
2021/03/17 12:53:28;;;;;;;7.75;2.90;;;22.30;84.50;;;;;;5068875;28;20522;-55
2021/03/17 12:55:56;;;;;;;10.75;3.58;;;22.30;84.40;;;;;;5071756;28;20459;-54
2021/03/17 12:58:25;;;;;;;9.50;3.30;;;22.20;84.40;;;;;;5071405;28;20029;-55
2021/03/17 13:00:52;;;;;;;7.93;2.80;;;22.30;84.40;;;;;;5072196;28;20078;-55
2021/03/17 13:03:20;;;;;;;8.75;3.03;;;22.20;84.50;;;;;;5068774;28;20504;-53
2021/03/17 13:05:47;;;;;;;7.30;2.53;;;22.20;84.50;;;;;;5069046;28;20056;-55